Airfield :
LOGIN :

Register | Disclaimer

   EN    FR    IT 

 










Legend :    VFR   Marginal VFR   IFR   Intensive IFR   Very Intensive IFR
Visi :
Ceiling :
>= 8 km
>= 3000ft
5 to 8 km
1000 to 3000 ft
1500m to 5 km
500 to 1000 ft
800 to 1500m
200 to 500 ft
< 800m
< 200 ft
Symbols :   Thunderstorms  Fog  Heavy snow  Heavy precipitations  Wind > 20 kt
SIGMETs :     Misc.  Thunderstorms  Icing  Turbulence  Mountain Waves  Volcanic Ashes







- Airport Elevation : 1830 ft


EBLB - Butgenbach Elsenborn

CURRENT METAR :
  • 190311Z AUTO 21004KT 0550 FG OVC002/// M05/M05 Q1019 RED

EXPIRED METARs :
  • 190255Z AUTO 22003KT 1300 BR OVC002/// M05/M05 Q1019 AMB
  • 190235Z AUTO 21003KT 1500 BR OVC003/// M04/M05 Q1020 AMB
  • 190225Z AUTO VRB02KT 2500 BR OVC004/// M04/M05 Q1020 YLO
  • 190155Z AUTO VRB02KT 3300 BR BKN005/// M05/M06 Q1020 YLO
  • 190125Z AUTO 28003KT 2200 BR FEW160/// M07/M08 Q1020 YLO
  • 190055Z AUTO VRB01KT 2200 BR SCT200/// M07/M08 Q1021 YLO
  • 190025Z AUTO VRB02KT 3000 BR NCD M07/M08 Q1021 YLO

Expired Forecast.
No reported NOTAMs for that airfield.



MET'MAP, your aeronautical weather chart ! - Copyright ORBIFLY December 2007 - Disclaimer

ORBIFLY MET'MAP TEAM :

Programming & Development : Alexandra Zaïnal
Concept & Development : Baudouin d'Aumeries
Co-Development & Prog : Marc-Olivier Méhu
Technical & hardware support : Manuel Goepfert

Contact : metmap@orbifly.com




SOURCES & CREDITS :

   NOAA